sensor_id;sensor_type;location;lat;lon;timestamp;pressure;altitude;pressure_sealevel;temperature;humidity
50364;BME280;36272;59.400;17.982;2023-08-01T00:01:33;99774.97;;;14.93;100.00
50364;BME280;36272;59.400;17.982;2023-08-01T00:06:35;99772.84;;;14.90;100.00
50364;BME280;36272;59.400;17.982;2023-08-01T00:11:36;99769.63;;;14.88;100.00
50364;BME280;36272;59.400;17.982;2023-08-01T00:16:38;99761.25;;;14.90;100.00
50364;BME280;36272;59.400;17.982;2023-08-01T00:21:39;99761.78;;;14.92;100.00
50364;BME280;36272;59.400;17.982;2023-08-01T00:26:41;99759.63;;;14.94;100.00
50364;BME280;36272;59.400;17.982;2023-08-01T00:31:43;99755.31;;;14.98;100.00
50364;BME280;36272;59.400;17.982;2023-08-01T00:36:44;99759.31;;;15.06;100.00
50364;BME280;36272;59.400;17.982;2023-08-01T00:41:46;99753.91;;;15.11;100.00
50364;BME280;36272;59.400;17.982;2023-08-01T00:46:48;99751.75;;;15.13;100.00
50364;BME280;36272;59.400;17.982;2023-08-01T00:51:50;99747.19;;;15.08;100.00
50364;BME280;36272;59.400;17.982;2023-08-01T00:56:52;99746.91;;;15.05;100.00
50364;BME280;36272;59.400;17.982;2023-08-01T01:01:53;99741.28;;;15.01;100.00
50364;BME280;36272;59.400;17.982;2023-08-01T01:07:00;99728.63;;;15.01;100.00
50364;BME280;36272;59.400;17.982;2023-08-01T01:12:03;99717.59;;;15.03;100.00
50364;BME280;36272;59.400;17.982;2023-08-01T01:17:06;99721.34;;;15.07;100.00
50364;BME280;36272;59.400;17.982;2023-08-01T01:22:09;99712.44;;;15.12;100.00
50364;BME280;36272;59.400;17.982;2023-08-01T01:27:11;99707.88;;;15.12;100.00
50364;BME280;36272;59.400;17.982;2023-08-01T01:32:17;99684.44;;;15.08;100.00
50364;BME280;36272;59.400;17.982;2023-08-01T01:37:19;99689.06;;;15.02;100.00
50364;BME280;36272;59.400;17.982;2023-08-01T01:42:21;99685.84;;;14.95;100.00
50364;BME280;36272;59.400;17.982;2023-08-01T01:47:22;99678.06;;;14.93;100.00
50364;BME280;36272;59.400;17.982;2023-08-01T01:52:24;99667.31;;;14.93;100.00
50364;BME280;36272;59.400;17.982;2023-08-01T01:57:25;99659.78;;;14.90;100.00
50364;BME280;36272;59.400;17.982;2023-08-01T02:02:27;99667.34;;;14.83;100.00
50364;BME280;36272;59.400;17.982;2023-08-01T02:07:29;99656.34;;;14.74;100.00
50364;BME280;36272;59.400;17.982;2023-08-01T02:12:31;99650.13;;;14.68;100.00
50364;BME280;36272;59.400;17.982;2023-08-01T02:17:33;99653.91;;;14.62;100.00
50364;BME280;36272;59.400;17.982;2023-08-01T02:22:40;99641.00;;;14.59;100.00
50364;BME280;36272;59.400;17.982;2023-08-01T02:27:41;99647.47;;;14.58;100.00
50364;BME280;36272;59.400;17.982;2023-08-01T02:32:43;99638.59;;;14.57;100.00
50364;BME280;36272;59.400;17.982;2023-08-01T02:37:44;99640.22;;;14.58;100.00
50364;BME280;36272;59.400;17.982;2023-08-01T02:42:46;99628.94;;;14.56;100.00
50364;BME280;36272;59.400;17.982;2023-08-01T02:47:48;99635.69;;;14.54;100.00
50364;BME280;36272;59.400;17.982;2023-08-01T02:52:49;99631.63;;;14.51;100.00
50364;BME280;36272;59.400;17.982;2023-08-01T02:57:51;99624.63;;;14.50;100.00
50364;BME280;36272;59.400;17.982;2023-08-01T03:02:52;99619.56;;;14.49;100.00
50364;BME280;36272;59.400;17.982;2023-08-01T03:07:54;99628.97;;;14.46;100.00
50364;BME280;36272;59.400;17.982;2023-08-01T03:12:56;99625.19;;;14.47;100.00
50364;BME280;36272;59.400;17.982;2023-08-01T03:17:58;99620.88;;;14.51;100.00
50364;BME280;36272;59.400;17.982;2023-08-01T03:22:59;99621.94;;;14.55;100.00
50364;BME280;36272;59.400;17.982;2023-08-01T03:28:01;99622.44;;;14.63;100.00
50364;BME280;36272;59.400;17.982;2023-08-01T03:33:03;99597.94;;;14.69;100.00
50364;BME280;36272;59.400;17.982;2023-08-01T03:38:05;99606.28;;;14.78;100.00
50364;BME280;36272;59.400;17.982;2023-08-01T03:43:06;99588.19;;;14.84;100.00
50364;BME280;36272;59.400;17.982;2023-08-01T03:48:10;99593.56;;;14.89;100.00
50364;BME280;36272;59.400;17.982;2023-08-01T03:53:13;99588.41;;;14.93;100.00
50364;BME280;36272;59.400;17.982;2023-08-01T03:58:14;99586.78;;;14.97;100.00
50364;BME280;36272;59.400;17.982;2023-08-01T04:03:16;99591.06;;;14.98;100.00
50364;BME280;36272;59.400;17.982;2023-08-01T04:08:18;99586.50;;;14.98;100.00
50364;BME280;36272;59.400;17.982;2023-08-01T04:13:19;99588.13;;;14.99;100.00
50364;BME280;36272;59.400;17.982;2023-08-01T04:18:21;99585.13;;;15.01;100.00
50364;BME280;36272;59.400;17.982;2023-08-01T04:23:23;99576.25;;;15.00;100.00
50364;BME280;36272;59.400;17.982;2023-08-01T04:28:25;99564.66;;;15.05;100.00
50364;BME280;36272;59.400;17.982;2023-08-01T04:33:27;99574.31;;;15.11;100.00
50364;BME280;36272;59.400;17.982;2023-08-01T04:38:28;99575.06;;;15.17;100.00
50364;BME280;36272;59.400;17.982;2023-08-01T04:43:30;99569.88;;;15.26;100.00
50364;BME280;36272;59.400;17.982;2023-08-01T04:48:32;99569.78;;;15.36;100.00
50364;BME280;36272;59.400;17.982;2023-08-01T04:53:33;99557.91;;;15.42;100.00
50364;BME280;36272;59.400;17.982;2023-08-01T04:58:35;99563.19;;;15.53;100.00
50364;BME280;36272;59.400;17.982;2023-08-01T05:03:37;99570.69;;;15.61;100.00
50364;BME280;36272;59.400;17.982;2023-08-01T05:08:38;99560.59;;;15.72;100.00
50364;BME280;36272;59.400;17.982;2023-08-01T05:13:40;99558.47;;;15.98;100.00
50364;BME280;36272;59.400;17.982;2023-08-01T05:18:41;99564.38;;;16.25;100.00
50364;BME280;36272;59.400;17.982;2023-08-01T05:23:43;99553.78;;;16.53;100.00
50364;BME280;36272;59.400;17.982;2023-08-01T05:28:45;99558.63;;;16.75;100.00
50364;BME280;36272;59.400;17.982;2023-08-01T05:33:46;99566.06;;;16.83;100.00
50364;BME280;36272;59.400;17.982;2023-08-01T05:38:48;99564.16;;;16.84;100.00
50364;BME280;36272;59.400;17.982;2023-08-01T05:43:49;99566.06;;;16.83;100.00
50364;BME280;36272;59.400;17.982;2023-08-01T05:48:51;99551.47;;;16.84;100.00
50364;BME280;36272;59.400;17.982;2023-08-01T05:53:53;99559.66;;;16.98;100.00
50364;BME280;36272;59.400;17.982;2023-08-01T05:58:54;99557.59;;;17.09;100.00
50364;BME280;36272;59.400;17.982;2023-08-01T06:03:56;99562.84;;;17.19;100.00
50364;BME280;36272;59.400;17.982;2023-08-01T06:08:58;99551.81;;;17.35;100.00
50364;BME280;36272;59.400;17.982;2023-08-01T06:13:59;99547.56;;;17.62;100.00
50364;BME280;36272;59.400;17.982;2023-08-01T06:19:01;99541.47;;;17.84;100.00
50364;BME280;36272;59.400;17.982;2023-08-01T06:24:03;99540.53;;;18.08;100.00
50364;BME280;36272;59.400;17.982;2023-08-01T06:29:04;99552.44;;;18.21;100.00
50364;BME280;36272;59.400;17.982;2023-08-01T06:34:11;99536.22;;;18.21;100.00
50364;BME280;36272;59.400;17.982;2023-08-01T06:39:15;99547.94;;;18.30;100.00
50364;BME280;36272;59.400;17.982;2023-08-01T06:44:57;99535.16;;;18.45;100.00
50364;BME280;36272;59.400;17.982;2023-08-01T06:50:09;99536.06;;;18.54;100.00
50364;BME280;36272;59.400;17.982;2023-08-01T06:55:11;99557.41;;;18.69;100.00
50364;BME280;36272;59.400;17.982;2023-08-01T07:00:13;99541.28;;;18.87;100.00
50364;BME280;36272;59.400;17.982;2023-08-01T07:05:15;99541.94;;;19.07;99.26
50364;BME280;36272;59.400;17.982;2023-08-01T07:10:22;99540.31;;;19.28;98.01
50364;BME280;36272;59.400;17.982;2023-08-01T07:15:32;99534.84;;;19.42;97.35
50364;BME280;36272;59.400;17.982;2023-08-01T07:20:34;99547.16;;;19.80;96.61
50364;BME280;36272;59.400;17.982;2023-08-01T07:25:35;99529.91;;;20.16;95.35
50364;BME280;36272;59.400;17.982;2023-08-01T07:30:37;99531.72;;;20.39;92.32
50364;BME280;36272;59.400;17.982;2023-08-01T07:35:38;99531.41;;;20.58;90.93
50364;BME280;36272;59.400;17.982;2023-08-01T07:40:40;99527.13;;;20.74;91.18
50364;BME280;36272;59.400;17.982;2023-08-01T07:45:42;99533.69;;;20.82;90.46
50364;BME280;36272;59.400;17.982;2023-08-01T07:50:43;99522.69;;;20.96;90.12
50364;BME280;36272;59.400;17.982;2023-08-01T07:55:45;99520.75;;;20.97;87.98
50364;BME280;36272;59.400;17.982;2023-08-01T08:00:47;99520.91;;;20.74;87.35
50364;BME280;36272;59.400;17.982;2023-08-01T08:05:49;99515.59;;;20.51;88.09
50364;BME280;36272;59.400;17.982;2023-08-01T08:10:51;99526.75;;;20.41;88.45
50364;BME280;36272;59.400;17.982;2023-08-01T08:16:06;99502.66;;;20.39;88.96
50364;BME280;36272;59.400;17.982;2023-08-01T08:21:11;99504.72;;;20.60;87.98
50364;BME280;36272;59.400;17.982;2023-08-01T08:26:13;99514.84;;;20.86;88.68
50364;BME280;36272;59.400;17.982;2023-08-01T08:31:14;99516.91;;;21.06;86.75
50364;BME280;36272;59.400;17.982;2023-08-01T08:36:16;99507.56;;;21.34;85.44
50364;BME280;36272;59.400;17.982;2023-08-01T08:41:37;99485.53;;;21.74;83.19
50364;BME280;36272;59.400;17.982;2023-08-01T08:46:54;99488.72;;;21.85;82.30
50364;BME280;36272;59.400;17.982;2023-08-01T08:52:00;99478.78;;;22.10;80.93
50364;BME280;36272;59.400;17.982;2023-08-01T08:57:06;99473.50;;;22.35;79.71
50364;BME280;36272;59.400;17.982;2023-08-01T09:02:15;99480.09;;;22.55;79.69
50364;BME280;36272;59.400;17.982;2023-08-01T09:07:23;99477.50;;;22.59;77.80
50364;BME280;36272;59.400;17.982;2023-08-01T09:12:36;99477.03;;;22.57;76.98
50364;BME280;36272;59.400;17.982;2023-08-01T09:24:27;99477.38;;;22.55;71.71
50364;BME280;36272;59.400;17.982;2023-08-01T09:29:28;99496.84;;;22.15;71.06
50364;BME280;36272;59.400;17.982;2023-08-01T09:34:59;99478.72;;;21.98;72.84
50364;BME280;36272;59.400;17.982;2023-08-01T09:40:05;99473.34;;;21.80;70.69
50364;BME280;36272;59.400;17.982;2023-08-01T09:45:13;99462.56;;;21.54;71.85
50364;BME280;36272;59.400;17.982;2023-08-01T09:50:23;99462.81;;;21.31;73.17
50364;BME280;36272;59.400;17.982;2023-08-01T09:55:32;99465.38;;;21.28;73.30
50364;BME280;36272;59.400;17.982;2023-08-01T10:00:34;99466.19;;;21.28;72.89
50364;BME280;36272;59.400;17.982;2023-08-01T10:06:02;99455.19;;;21.63;72.32
50364;BME280;36272;59.400;17.982;2023-08-01T10:11:04;99459.34;;;21.61;71.30
50364;BME280;36272;59.400;17.982;2023-08-01T10:16:10;99449.88;;;21.67;71.33
50364;BME280;36272;59.400;17.982;2023-08-01T10:21:13;99447.19;;;21.97;72.53
50364;BME280;36272;59.400;17.982;2023-08-01T10:26:16;99444.78;;;22.38;71.39
50364;BME280;36272;59.400;17.982;2023-08-01T10:31:19;99449.31;;;22.76;68.67
50364;BME280;36272;59.400;17.982;2023-08-01T10:36:55;99442.91;;;22.93;68.34
50364;BME280;36272;59.400;17.982;2023-08-01T10:41:59;99446.69;;;23.13;67.64
50364;BME280;36272;59.400;17.982;2023-08-01T10:47:04;99441.28;;;23.26;65.74
50364;BME280;36272;59.400;17.982;2023-08-01T10:52:25;99436.38;;;23.19;66.24
50364;BME280;36272;59.400;17.982;2023-08-01T10:57:33;99431.34;;;23.09;65.91
50364;BME280;36272;59.400;17.982;2023-08-01T11:02:36;99447.44;;;23.35;67.31
50364;BME280;36272;59.400;17.982;2023-08-01T11:07:38;99444.94;;;23.92;67.03
50364;BME280;36272;59.400;17.982;2023-08-01T11:12:43;99442.34;;;23.83;68.03
50364;BME280;36272;59.400;17.982;2023-08-01T11:17:50;99437.91;;;23.54;68.72
50364;BME280;36272;59.400;17.982;2023-08-01T11:22:59;99431.88;;;23.48;69.20
50364;BME280;36272;59.400;17.982;2023-08-01T11:28:09;99423.00;;;23.64;68.53
50364;BME280;36272;59.400;17.982;2023-08-01T11:33:21;99426.97;;;23.91;67.11
50364;BME280;36272;59.400;17.982;2023-08-01T11:38:25;99430.34;;;24.25;65.69
50364;BME280;36272;59.400;17.982;2023-08-01T11:43:40;99430.41;;;25.14;63.03
50364;BME280;36272;59.400;17.982;2023-08-01T11:48:48;99431.16;;;26.31;60.22
50364;BME280;36272;59.400;17.982;2023-08-01T11:59:08;99422.94;;;28.17;55.83
50364;BME280;36272;59.400;17.982;2023-08-01T12:04:26;99420.22;;;29.34;55.65
50364;BME280;36272;59.400;17.982;2023-08-01T12:09:36;99429.31;;;31.19;53.25
50364;BME280;36272;59.400;17.982;2023-08-01T12:20:10;99426.38;;;27.83;57.07
50364;BME280;36272;59.400;17.982;2023-08-01T12:25:17;99435.53;;;26.94;57.67
50364;BME280;36272;59.400;17.982;2023-08-01T12:30:19;99446.22;;;26.21;59.24
50364;BME280;36272;59.400;17.982;2023-08-01T12:35:48;99439.78;;;25.77;61.34
50364;BME280;36272;59.400;17.982;2023-08-01T12:41:03;99440.94;;;25.44;61.78
50364;BME280;36272;59.400;17.982;2023-08-01T12:46:18;99443.44;;;25.05;61.60
50364;BME280;36272;59.400;17.982;2023-08-01T12:51:23;99458.22;;;24.72;62.81
50364;BME280;36272;59.400;17.982;2023-08-01T13:14:24;99438.88;;;34.39;48.00
50364;BME280;36272;59.400;17.982;2023-08-01T13:20:21;99447.03;;;35.80;45.31
50364;BME280;36272;59.400;17.982;2023-08-01T13:26:20;99435.91;;;33.46;47.22
50364;BME280;36272;59.400;17.982;2023-08-01T13:31:29;99444.53;;;32.25;48.83
50364;BME280;36272;59.400;17.982;2023-08-01T13:37:08;99425.09;;;34.01;45.82
50364;BME280;36272;59.400;17.982;2023-08-01T13:43:02;99425.59;;;33.89;46.53
50364;BME280;36272;59.400;17.982;2023-08-01T13:48:15;99425.25;;;34.52;45.67
50364;BME280;36272;59.400;17.982;2023-08-01T13:53:43;99425.59;;;34.86;44.80
50364;BME280;36272;59.400;17.982;2023-08-01T13:59:12;99414.50;;;35.33;43.77
50364;BME280;36272;59.400;17.982;2023-08-01T14:04:55;99424.44;;;36.92;42.39
50364;BME280;36272;59.400;17.982;2023-08-01T14:10:22;99420.47;;;35.55;42.68
50364;BME280;36272;59.400;17.982;2023-08-01T14:15:32;99425.22;;;32.96;45.91
50364;BME280;36272;59.400;17.982;2023-08-01T14:20:48;99429.31;;;31.15;48.11
50364;BME280;36272;59.400;17.982;2023-08-01T14:26:00;99440.00;;;30.03;50.04
50364;BME280;36272;59.400;17.982;2023-08-01T14:31:03;99432.16;;;29.49;49.67
50364;BME280;36272;59.400;17.982;2023-08-01T14:36:09;99414.88;;;29.52;50.36
50364;BME280;36272;59.400;17.982;2023-08-01T14:41:14;99430.22;;;30.16;50.26
50364;BME280;36272;59.400;17.982;2023-08-01T14:46:16;99438.75;;;30.99;48.13
50364;BME280;36272;59.400;17.982;2023-08-01T14:57:32;99427.47;;;30.16;50.15
50364;BME280;36272;59.400;17.982;2023-08-01T15:02:44;99418.63;;;30.92;49.15
50364;BME280;36272;59.400;17.982;2023-08-01T15:07:57;99404.06;;;31.13;49.72
50364;BME280;36272;59.400;17.982;2023-08-01T15:13:01;99417.81;;;31.96;49.04
50364;BME280;36272;59.400;17.982;2023-08-01T15:18:03;99419.81;;;31.78;48.86
50364;BME280;36272;59.400;17.982;2023-08-01T15:23:05;99407.66;;;31.17;48.39
50364;BME280;36272;59.400;17.982;2023-08-01T15:34:24;99412.13;;;30.15;49.12
50364;BME280;36272;59.400;17.982;2023-08-01T15:39:26;99426.53;;;29.34;50.27
50364;BME280;36272;59.400;17.982;2023-08-01T15:44:27;99423.41;;;28.57;50.73
50364;BME280;36272;59.400;17.982;2023-08-01T15:49:29;99415.19;;;27.96;51.40
50364;BME280;36272;59.400;17.982;2023-08-01T15:54:31;99410.56;;;28.03;51.16
50364;BME280;36272;59.400;17.982;2023-08-01T15:59:37;99397.88;;;27.65;51.82
50364;BME280;36272;59.400;17.982;2023-08-01T16:04:38;99400.34;;;27.23;52.77
50364;BME280;36272;59.400;17.982;2023-08-01T16:09:40;99397.84;;;26.48;54.72
50364;BME280;36272;59.400;17.982;2023-08-01T16:14:41;99390.94;;;26.35;54.67
50364;BME280;36272;59.400;17.982;2023-08-01T16:19:43;99393.03;;;26.06;55.45
50364;BME280;36272;59.400;17.982;2023-08-01T16:24:45;99405.06;;;25.65;56.40
50364;BME280;36272;59.400;17.982;2023-08-01T16:29:47;99381.34;;;25.37;57.27
50364;BME280;36272;59.400;17.982;2023-08-01T16:34:49;99387.19;;;25.04;57.68
50364;BME280;36272;59.400;17.982;2023-08-01T16:39:50;99396.78;;;24.82;58.27
50364;BME280;36272;59.400;17.982;2023-08-01T16:44:52;99390.53;;;24.53;57.88
50364;BME280;36272;59.400;17.982;2023-08-01T16:49:54;99392.06;;;24.38;58.26
50364;BME280;36272;59.400;17.982;2023-08-01T16:54:57;99397.56;;;24.25;58.09
50364;BME280;36272;59.400;17.982;2023-08-01T17:00:01;99404.19;;;24.12;59.10
50364;BME280;36272;59.400;17.982;2023-08-01T17:05:03;99391.34;;;24.12;60.07
50364;BME280;36272;59.400;17.982;2023-08-01T17:10:05;99387.44;;;24.26;60.14
50364;BME280;36272;59.400;17.982;2023-08-01T17:15:07;99398.25;;;24.22;60.24
50364;BME280;36272;59.400;17.982;2023-08-01T17:20:09;99396.59;;;23.92;60.73
50364;BME280;36272;59.400;17.982;2023-08-01T17:25:14;99394.69;;;23.81;61.69
50364;BME280;36272;59.400;17.982;2023-08-01T17:30:20;99387.09;;;23.61;62.00
50364;BME280;36272;59.400;17.982;2023-08-01T17:35:22;99398.91;;;23.41;62.33
50364;BME280;36272;59.400;17.982;2023-08-01T17:40:24;99406.50;;;23.23;63.20
50364;BME280;36272;59.400;17.982;2023-08-01T17:45:25;99395.34;;;23.03;64.01
50364;BME280;36272;59.400;17.982;2023-08-01T17:50:27;99394.53;;;22.90;64.66
50364;BME280;36272;59.400;17.982;2023-08-01T17:55:29;99389.59;;;22.71;65.44
50364;BME280;36272;59.400;17.982;2023-08-01T18:00:33;99389.75;;;22.53;65.38
50364;BME280;36272;59.400;17.982;2023-08-01T18:05:34;99393.25;;;22.33;65.78
50364;BME280;36272;59.400;17.982;2023-08-01T18:10:37;99377.53;;;22.17;66.63
50364;BME280;36272;59.400;17.982;2023-08-01T18:15:39;99369.41;;;22.08;66.77
50364;BME280;36272;59.400;17.982;2023-08-01T18:20:42;99371.47;;;21.90;67.07
50364;BME280;36272;59.400;17.982;2023-08-01T18:25:44;99373.50;;;21.81;67.29
50364;BME280;36272;59.400;17.982;2023-08-01T18:30:48;99344.72;;;21.71;67.88
50364;BME280;36272;59.400;17.982;2023-08-01T18:35:53;99352.75;;;21.67;68.17
50364;BME280;36272;59.400;17.982;2023-08-01T18:40:54;99360.13;;;21.58;68.40
50364;BME280;36272;59.400;17.982;2023-08-01T18:45:56;99353.53;;;21.38;69.57
50364;BME280;36272;59.400;17.982;2023-08-01T18:50:59;99352.94;;;21.32;70.09
50364;BME280;36272;59.400;17.982;2023-08-01T18:56:05;99337.59;;;21.28;70.76
50364;BME280;36272;59.400;17.982;2023-08-01T19:01:20;99331.59;;;21.13;70.98
50364;BME280;36272;59.400;17.982;2023-08-01T19:06:26;99346.50;;;20.98;71.79
50364;BME280;36272;59.400;17.982;2023-08-01T19:11:28;99343.03;;;20.89;72.36
50364;BME280;36272;59.400;17.982;2023-08-01T19:16:33;99333.13;;;20.84;72.78
50364;BME280;36272;59.400;17.982;2023-08-01T19:21:34;99336.81;;;20.79;73.36
50364;BME280;36272;59.400;17.982;2023-08-01T19:26:36;99322.91;;;20.72;73.63
50364;BME280;36272;59.400;17.982;2023-08-01T19:31:37;99311.25;;;20.63;74.51
50364;BME280;36272;59.400;17.982;2023-08-01T19:36:39;99302.81;;;20.56;74.83
50364;BME280;36272;59.400;17.982;2023-08-01T19:41:50;99312.09;;;20.46;76.02
50364;BME280;36272;59.400;17.982;2023-08-01T19:46:55;99313.09;;;20.41;76.59
50364;BME280;36272;59.400;17.982;2023-08-01T20:29:00;99270.81;;;20.14;79.40
50364;BME280;36272;59.400;17.982;2023-08-01T20:46:36;99259.00;;;20.10;80.79
50364;BME280;36272;59.400;17.982;2023-08-01T20:53:01;99256.75;;;19.85;82.43
50364;BME280;36272;59.400;17.982;2023-08-01T20:58:21;99253.88;;;19.73;83.60
50364;BME280;36272;59.400;17.982;2023-08-01T21:03:23;99263.94;;;19.64;84.37
50364;BME280;36272;59.400;17.982;2023-08-01T21:08:24;99262.03;;;19.55;85.26
50364;BME280;36272;59.400;17.982;2023-08-01T21:13:26;99254.53;;;19.52;85.78
50364;BME280;36272;59.400;17.982;2023-08-01T21:18:28;99229.78;;;19.45;86.41
50364;BME280;36272;59.400;17.982;2023-08-01T21:23:30;99234.88;;;19.38;86.69
50364;BME280;36272;59.400;17.982;2023-08-01T21:28:32;99239.97;;;19.30;87.21
50364;BME280;36272;59.400;17.982;2023-08-01T21:33:34;99219.88;;;19.14;87.87
50364;BME280;36272;59.400;17.982;2023-08-01T21:38:35;99227.66;;;19.07;88.56
50364;BME280;36272;59.400;17.982;2023-08-01T21:43:37;99216.00;;;18.97;88.97
50364;BME280;36272;59.400;17.982;2023-08-01T21:48:39;99225.84;;;18.93;89.37
50364;BME280;36272;59.400;17.982;2023-08-01T21:53:43;99196.50;;;18.86;90.06
50364;BME280;36272;59.400;17.982;2023-08-01T21:58:47;99209.38;;;18.81;90.22
50364;BME280;36272;59.400;17.982;2023-08-01T22:03:54;99203.66;;;18.73;90.37
50364;BME280;36272;59.400;17.982;2023-08-01T22:08:59;99193.59;;;18.65;90.89
50364;BME280;36272;59.400;17.982;2023-08-01T22:14:00;99196.44;;;18.60;91.05
50364;BME280;36272;59.400;17.982;2023-08-01T22:19:03;99182.53;;;18.53;91.52
50364;BME280;36272;59.400;17.982;2023-08-01T22:24:04;99183.28;;;18.45;92.20
50364;BME280;36272;59.400;17.982;2023-08-01T22:29:06;99171.50;;;18.40;92.73
50364;BME280;36272;59.400;17.982;2023-08-01T22:34:08;99172.94;;;18.38;93.02
50364;BME280;36272;59.400;17.982;2023-08-01T22:39:13;99149.50;;;18.33;93.21
50364;BME280;36272;59.400;17.982;2023-08-01T22:44:15;99154.91;;;18.33;93.33
50364;BME280;36272;59.400;17.982;2023-08-01T22:49:16;99156.19;;;18.36;93.26
50364;BME280;36272;59.400;17.982;2023-08-01T22:54:18;99156.50;;;18.34;93.41
50364;BME280;36272;59.400;17.982;2023-08-01T22:59:20;99142.19;;;18.34;93.72
50364;BME280;36272;59.400;17.982;2023-08-01T23:04:21;99130.25;;;18.35;93.70
50364;BME280;36272;59.400;17.982;2023-08-01T23:09:26;99114.81;;;18.35;94.16
50364;BME280;36272;59.400;17.982;2023-08-01T23:14:28;99138.53;;;18.38;93.91
50364;BME280;36272;59.400;17.982;2023-08-01T23:19:29;99137.59;;;18.43;94.16
50364;BME280;36272;59.400;17.982;2023-08-01T23:24:31;99123.75;;;18.45;94.28
50364;BME280;36272;59.400;17.982;2023-08-01T23:29:33;99116.13;;;18.47;94.24
50364;BME280;36272;59.400;17.982;2023-08-01T23:34:34;99119.31;;;18.49;94.33
50364;BME280;36272;59.400;17.982;2023-08-01T23:39:36;99098.13;;;18.51;94.41
50364;BME280;36272;59.400;17.982;2023-08-01T23:44:38;99086.19;;;18.52;94.56
50364;BME280;36272;59.400;17.982;2023-08-01T23:49:40;99095.13;;;18.52;94.59
50364;BME280;36272;59.400;17.982;2023-08-01T23:54:41;99089.72;;;18.52;94.74
50364;BME280;36272;59.400;17.982;2023-08-01T23:59:44;99085.09;;;18.53;94.94
